sensor_id;sensor_type;location;lat;lon;timestamp;P1;durP1;ratioP1;P2;durP2;ratioP2
51987;SDS011;38003;52.012;4.346;2022-08-30T00:00:00;7.47;;;3.20;;
51987;SDS011;38003;52.012;4.346;2022-08-30T00:02:49;6.47;;;3.10;;
51987;SDS011;38003;52.012;4.346;2022-08-30T00:05:17;9.10;;;3.40;;
51987;SDS011;38003;52.012;4.346;2022-08-30T00:07:44;6.15;;;3.13;;
51987;SDS011;38003;52.012;4.346;2022-08-30T00:10:12;7.05;;;3.10;;
51987;SDS011;38003;52.012;4.346;2022-08-30T00:12:40;6.38;;;3.20;;
51987;SDS011;38003;52.012;4.346;2022-08-30T00:15:09;4.97;;;3.30;;
51987;SDS011;38003;52.012;4.346;2022-08-30T00:17:40;5.38;;;2.95;;
51987;SDS011;38003;52.012;4.346;2022-08-30T00:20:11;4.60;;;3.10;;
51987;SDS011;38003;52.012;4.346;2022-08-30T00:22:41;8.48;;;3.20;;
51987;SDS011;38003;52.012;4.346;2022-08-30T00:25:09;4.78;;;3.15;;
51987;SDS011;38003;52.012;4.346;2022-08-30T00:27:38;5.20;;;3.03;;
51987;SDS011;38003;52.012;4.346;2022-08-30T00:30:07;6.35;;;3.38;;
51987;SDS011;38003;52.012;4.346;2022-08-30T00:32:36;5.38;;;2.80;;
51987;SDS011;38003;52.012;4.346;2022-08-30T00:35:04;9.95;;;3.00;;
51987;SDS011;38003;52.012;4.346;2022-08-30T00:37:34;4.97;;;3.15;;
51987;SDS011;38003;52.012;4.346;2022-08-30T00:40:02;7.47;;;3.33;;
51987;SDS011;38003;52.012;4.346;2022-08-30T00:42:32;4.82;;;2.90;;
51987;SDS011;38003;52.012;4.346;2022-08-30T00:45:00;4.50;;;2.70;;
51987;SDS011;38003;52.012;4.346;2022-08-30T00:47:35;7.53;;;2.92;;
51987;SDS011;38003;52.012;4.346;2022-08-30T00:50:03;4.43;;;2.95;;
51987;SDS011;38003;52.012;4.346;2022-08-30T00:52:35;4.70;;;3.17;;
51987;SDS011;38003;52.012;4.346;2022-08-30T00:55:07;5.18;;;3.05;;
51987;SDS011;38003;52.012;4.346;2022-08-30T00:57:37;7.20;;;2.97;;
51987;SDS011;38003;52.012;4.346;2022-08-30T01:00:05;6.53;;;3.13;;
51987;SDS011;38003;52.012;4.346;2022-08-30T01:02:34;4.82;;;2.85;;
51987;SDS011;38003;52.012;4.346;2022-08-30T01:05:03;7.72;;;2.90;;
51987;SDS011;38003;52.012;4.346;2022-08-30T01:07:34;4.53;;;2.85;;
51987;SDS011;38003;52.012;4.346;2022-08-30T01:10:03;5.13;;;2.85;;
51987;SDS011;38003;52.012;4.346;2022-08-30T01:12:32;4.50;;;2.70;;
51987;SDS011;38003;52.012;4.346;2022-08-30T01:15:00;4.50;;;2.83;;
51987;SDS011;38003;52.012;4.346;2022-08-30T01:17:28;6.20;;;2.88;;
51987;SDS011;38003;52.012;4.346;2022-08-30T01:19:57;5.10;;;2.83;;
51987;SDS011;38003;52.012;4.346;2022-08-30T01:22:29;5.05;;;3.00;;
51987;SDS011;38003;52.012;4.346;2022-08-30T01:25:04;5.13;;;3.28;;
51987;SDS011;38003;52.012;4.346;2022-08-30T01:27:35;4.07;;;2.72;;
51987;SDS011;38003;52.012;4.346;2022-08-30T01:30:06;6.32;;;3.20;;
51987;SDS011;38003;52.012;4.346;2022-08-30T01:32:37;3.55;;;2.60;;
51987;SDS011;38003;52.012;4.346;2022-08-30T01:35:07;7.43;;;3.30;;
51987;SDS011;38003;52.012;4.346;2022-08-30T01:37:35;8.13;;;3.30;;
51987;SDS011;38003;52.012;4.346;2022-08-30T01:40:06;4.75;;;3.10;;
51987;SDS011;38003;52.012;4.346;2022-08-30T01:42:35;4.97;;;3.53;;
51987;SDS011;38003;52.012;4.346;2022-08-30T01:45:04;7.00;;;2.95;;
51987;SDS011;38003;52.012;4.346;2022-08-30T01:47:32;4.30;;;3.00;;
51987;SDS011;38003;52.012;4.346;2022-08-30T01:50:01;4.82;;;3.10;;
51987;SDS011;38003;52.012;4.346;2022-08-30T01:52:29;4.70;;;3.63;;
51987;SDS011;38003;52.012;4.346;2022-08-30T01:54:57;8.40;;;3.40;;
51987;SDS011;38003;52.012;4.346;2022-08-30T01:57:26;6.13;;;3.33;;
51987;SDS011;38003;52.012;4.346;2022-08-30T01:59:54;6.45;;;3.15;;
51987;SDS011;38003;52.012;4.346;2022-08-30T02:02:23;4.78;;;3.13;;
51987;SDS011;38003;52.012;4.346;2022-08-30T02:04:55;4.85;;;3.35;;
51987;SDS011;38003;52.012;4.346;2022-08-30T02:07:23;4.72;;;3.30;;
51987;SDS011;38003;52.012;4.346;2022-08-30T02:09:51;6.20;;;3.58;;
51987;SDS011;38003;52.012;4.346;2022-08-30T02:12:20;4.38;;;3.38;;
51987;SDS011;38003;52.012;4.346;2022-08-30T02:14:49;4.82;;;3.47;;
51987;SDS011;38003;52.012;4.346;2022-08-30T02:17:17;7.15;;;3.40;;
51987;SDS011;38003;52.012;4.346;2022-08-30T02:19:45;6.25;;;3.47;;
51987;SDS011;38003;52.012;4.346;2022-08-30T02:22:13;4.10;;;3.23;;
51987;SDS011;38003;52.012;4.346;2022-08-30T02:24:41;6.25;;;3.60;;
51987;SDS011;38003;52.012;4.346;2022-08-30T02:27:09;5.18;;;4.00;;
51987;SDS011;38003;52.012;4.346;2022-08-30T02:29:37;4.68;;;3.47;;
51987;SDS011;38003;52.012;4.346;2022-08-30T02:32:06;5.88;;;3.63;;
51987;SDS011;38003;52.012;4.346;2022-08-30T02:34:34;5.53;;;3.90;;
51987;SDS011;38003;52.012;4.346;2022-08-30T02:37:02;7.22;;;4.20;;
51987;SDS011;38003;52.012;4.346;2022-08-30T02:39:31;5.55;;;3.58;;
51987;SDS011;38003;52.012;4.346;2022-08-30T02:41:59;6.45;;;3.60;;
51987;SDS011;38003;52.012;4.346;2022-08-30T02:44:27;6.32;;;4.07;;
51987;SDS011;38003;52.012;4.346;2022-08-30T02:46:54;6.03;;;4.30;;
51987;SDS011;38003;52.012;4.346;2022-08-30T02:49:24;4.75;;;3.90;;
51987;SDS011;38003;52.012;4.346;2022-08-30T02:51:59;6.55;;;4.15;;
51987;SDS011;38003;52.012;4.346;2022-08-30T02:54:28;5.43;;;3.92;;
51987;SDS011;38003;52.012;4.346;2022-08-30T02:56:58;5.38;;;4.10;;
51987;SDS011;38003;52.012;4.346;2022-08-30T02:59:29;5.13;;;4.30;;
51987;SDS011;38003;52.012;4.346;2022-08-30T03:01:58;4.35;;;3.90;;
51987;SDS011;38003;52.012;4.346;2022-08-30T03:04:27;5.65;;;4.13;;
51987;SDS011;38003;52.012;4.346;2022-08-30T03:06:55;4.55;;;4.07;;
51987;SDS011;38003;52.012;4.346;2022-08-30T03:09:24;6.00;;;4.25;;
51987;SDS011;38003;52.012;4.346;2022-08-30T03:11:51;5.03;;;4.35;;
51987;SDS011;38003;52.012;4.346;2022-08-30T03:14:19;6.18;;;4.43;;
51987;SDS011;38003;52.012;4.346;2022-08-30T03:16:48;8.73;;;4.28;;
51987;SDS011;38003;52.012;4.346;2022-08-30T03:19:16;5.40;;;4.65;;
51987;SDS011;38003;52.012;4.346;2022-08-30T03:21:45;5.10;;;4.60;;
51987;SDS011;38003;52.012;4.346;2022-08-30T03:24:13;4.93;;;4.40;;
51987;SDS011;38003;52.012;4.346;2022-08-30T03:26:41;4.95;;;4.45;;
51987;SDS011;38003;52.012;4.346;2022-08-30T03:29:11;9.55;;;5.07;;
51987;SDS011;38003;52.012;4.346;2022-08-30T03:31:39;5.72;;;4.70;;
51987;SDS011;38003;52.012;4.346;2022-08-30T03:34:19;5.93;;;4.80;;
51987;SDS011;38003;52.012;4.346;2022-08-30T03:36:49;7.53;;;5.33;;
51987;SDS011;38003;52.012;4.346;2022-08-30T03:39:18;6.20;;;5.20;;
51987;SDS011;38003;52.012;4.346;2022-08-30T03:41:47;5.60;;;4.97;;
51987;SDS011;38003;52.012;4.346;2022-08-30T03:44:17;5.85;;;5.35;;
51987;SDS011;38003;52.012;4.346;2022-08-30T03:46:45;6.63;;;5.10;;
51987;SDS011;38003;52.012;4.346;2022-08-30T03:49:13;7.97;;;5.60;;
51987;SDS011;38003;52.012;4.346;2022-08-30T03:51:41;7.45;;;5.43;;
51987;SDS011;38003;52.012;4.346;2022-08-30T03:54:10;5.68;;;5.07;;
51987;SDS011;38003;52.012;4.346;2022-08-30T03:56:38;7.13;;;6.00;;
51987;SDS011;38003;52.012;4.346;2022-08-30T03:59:07;6.40;;;5.80;;
51987;SDS011;38003;52.012;4.346;2022-08-30T04:01:35;6.15;;;5.57;;
51987;SDS011;38003;52.012;4.346;2022-08-30T04:04:02;6.07;;;5.47;;
51987;SDS011;38003;52.012;4.346;2022-08-30T04:06:30;6.18;;;5.57;;
51987;SDS011;38003;52.012;4.346;2022-08-30T04:08:58;7.30;;;5.80;;
51987;SDS011;38003;52.012;4.346;2022-08-30T04:11:28;7.45;;;6.60;;
51987;SDS011;38003;52.012;4.346;2022-08-30T04:13:56;6.90;;;6.20;;
51987;SDS011;38003;52.012;4.346;2022-08-30T04:16:24;6.93;;;6.20;;
51987;SDS011;38003;52.012;4.346;2022-08-30T04:18:52;8.90;;;6.30;;
51987;SDS011;38003;52.012;4.346;2022-08-30T04:21:20;9.63;;;6.53;;
51987;SDS011;38003;52.012;4.346;2022-08-30T04:23:48;7.05;;;6.35;;
51987;SDS011;38003;52.012;4.346;2022-08-30T04:26:16;7.43;;;6.72;;
51987;SDS011;38003;52.012;4.346;2022-08-30T04:28:45;9.15;;;6.75;;
51987;SDS011;38003;52.012;4.346;2022-08-30T04:31:14;7.60;;;6.80;;
51987;SDS011;38003;52.012;4.346;2022-08-30T04:33:44;8.57;;;6.95;;
51987;SDS011;38003;52.012;4.346;2022-08-30T04:36:11;7.90;;;7.10;;
51987;SDS011;38003;52.012;4.346;2022-08-30T04:38:40;8.25;;;6.60;;
51987;SDS011;38003;52.012;4.346;2022-08-30T04:41:09;8.60;;;6.82;;
51987;SDS011;38003;52.012;4.346;2022-08-30T04:43:38;8.73;;;6.97;;
51987;SDS011;38003;52.012;4.346;2022-08-30T04:46:07;7.80;;;7.05;;
51987;SDS011;38003;52.012;4.346;2022-08-30T04:48:36;8.73;;;7.07;;
51987;SDS011;38003;52.012;4.346;2022-08-30T04:51:04;7.70;;;6.90;;
51987;SDS011;38003;52.012;4.346;2022-08-30T04:53:33;7.53;;;6.85;;
51987;SDS011;38003;52.012;4.346;2022-08-30T04:56:05;7.97;;;7.17;;
51987;SDS011;38003;52.012;4.346;2022-08-30T04:58:33;7.60;;;6.87;;
51987;SDS011;38003;52.012;4.346;2022-08-30T05:01:02;8.10;;;7.23;;
51987;SDS011;38003;52.012;4.346;2022-08-30T05:03:31;10.90;;;7.60;;
51987;SDS011;38003;52.012;4.346;2022-08-30T05:05:59;8.47;;;6.67;;
51987;SDS011;38003;52.012;4.346;2022-08-30T05:08:27;9.02;;;7.20;;
51987;SDS011;38003;52.012;4.346;2022-08-30T05:10:55;12.07;;;6.77;;
51987;SDS011;38003;52.012;4.346;2022-08-30T05:13:23;8.25;;;7.45;;
51987;SDS011;38003;52.012;4.346;2022-08-30T05:16:02;7.97;;;7.17;;
51987;SDS011;38003;52.012;4.346;2022-08-30T05:18:33;7.70;;;6.87;;
51987;SDS011;38003;52.012;4.346;2022-08-30T05:21:02;7.60;;;6.90;;
51987;SDS011;38003;52.012;4.346;2022-08-30T05:23:31;8.67;;;7.10;;
51987;SDS011;38003;52.012;4.346;2022-08-30T05:26:02;7.83;;;7.13;;
51987;SDS011;38003;52.012;4.346;2022-08-30T05:28:31;7.93;;;6.70;;
51987;SDS011;38003;52.012;4.346;2022-08-30T05:31:00;7.53;;;6.82;;
51987;SDS011;38003;52.012;4.346;2022-08-30T05:33:28;8.23;;;7.53;;
51987;SDS011;38003;52.012;4.346;2022-08-30T05:36:06;8.70;;;7.20;;
51987;SDS011;38003;52.012;4.346;2022-08-30T05:38:35;7.80;;;6.77;;
51987;SDS011;38003;52.012;4.346;2022-08-30T05:41:03;8.27;;;7.10;;
51987;SDS011;38003;52.012;4.346;2022-08-30T05:43:36;9.00;;;7.37;;
51987;SDS011;38003;52.012;4.346;2022-08-30T05:46:05;9.50;;;7.70;;
51987;SDS011;38003;52.012;4.346;2022-08-30T05:48:36;8.83;;;7.30;;
51987;SDS011;38003;52.012;4.346;2022-08-30T05:51:07;9.48;;;7.10;;
51987;SDS011;38003;52.012;4.346;2022-08-30T05:53:39;8.20;;;7.03;;
51987;SDS011;38003;52.012;4.346;2022-08-30T05:56:10;8.70;;;7.50;;
51987;SDS011;38003;52.012;4.346;2022-08-30T05:58:40;8.70;;;7.80;;
51987;SDS011;38003;52.012;4.346;2022-08-30T06:01:17;7.67;;;6.97;;
51987;SDS011;38003;52.012;4.346;2022-08-30T06:03:46;8.48;;;7.55;;
51987;SDS011;38003;52.012;4.346;2022-08-30T06:06:15;10.30;;;7.57;;
51987;SDS011;38003;52.012;4.346;2022-08-30T06:08:43;8.40;;;7.43;;
51987;SDS011;38003;52.012;4.346;2022-08-30T06:11:12;8.20;;;7.40;;
51987;SDS011;38003;52.012;4.346;2022-08-30T06:13:41;8.48;;;7.32;;
51987;SDS011;38003;52.012;4.346;2022-08-30T06:16:10;8.27;;;7.47;;
51987;SDS011;38003;52.012;4.346;2022-08-30T06:18:38;7.53;;;6.77;;
51987;SDS011;38003;52.012;4.346;2022-08-30T06:21:06;9.93;;;7.50;;
51987;SDS011;38003;52.012;4.346;2022-08-30T06:23:41;9.98;;;7.43;;
51987;SDS011;38003;52.012;4.346;2022-08-30T06:26:09;9.15;;;7.30;;
51987;SDS011;38003;52.012;4.346;2022-08-30T06:28:38;7.88;;;7.13;;
51987;SDS011;38003;52.012;4.346;2022-08-30T06:31:06;9.47;;;7.50;;
51987;SDS011;38003;52.012;4.346;2022-08-30T06:33:35;7.37;;;6.67;;
51987;SDS011;38003;52.012;4.346;2022-08-30T06:36:03;8.47;;;7.03;;
51987;SDS011;38003;52.012;4.346;2022-08-30T06:38:32;11.23;;;7.13;;
51987;SDS011;38003;52.012;4.346;2022-08-30T06:41:05;7.68;;;6.97;;
51987;SDS011;38003;52.012;4.346;2022-08-30T06:43:33;7.83;;;7.00;;
51987;SDS011;38003;52.012;4.346;2022-08-30T06:46:01;8.23;;;6.40;;
51987;SDS011;38003;52.012;4.346;2022-08-30T06:48:30;8.27;;;6.40;;
51987;SDS011;38003;52.012;4.346;2022-08-30T06:50:59;8.23;;;6.80;;
51987;SDS011;38003;52.012;4.346;2022-08-30T06:53:28;7.35;;;6.32;;
51987;SDS011;38003;52.012;4.346;2022-08-30T06:55:58;9.15;;;6.05;;
51987;SDS011;38003;52.012;4.346;2022-08-30T06:58:28;6.47;;;5.88;;
51987;SDS011;38003;52.012;4.346;2022-08-30T07:00:57;6.97;;;5.93;;
51987;SDS011;38003;52.012;4.346;2022-08-30T07:03:25;6.38;;;5.78;;
51987;SDS011;38003;52.012;4.346;2022-08-30T07:05:54;7.67;;;6.10;;
51987;SDS011;38003;52.012;4.346;2022-08-30T07:08:23;7.20;;;5.50;;
51987;SDS011;38003;52.012;4.346;2022-08-30T07:10:52;6.55;;;5.50;;
51987;SDS011;38003;52.012;4.346;2022-08-30T07:13:20;6.23;;;4.93;;
51987;SDS011;38003;52.012;4.346;2022-08-30T07:15:50;5.15;;;4.65;;
51987;SDS011;38003;52.012;4.346;2022-08-30T07:18:19;7.55;;;5.05;;
51987;SDS011;38003;52.012;4.346;2022-08-30T07:21:05;5.13;;;4.23;;
51987;SDS011;38003;52.012;4.346;2022-08-30T07:23:34;9.25;;;4.30;;
51987;SDS011;38003;52.012;4.346;2022-08-30T07:26:04;4.95;;;4.20;;
51987;SDS011;38003;52.012;4.346;2022-08-30T07:28:34;5.93;;;4.30;;
51987;SDS011;38003;52.012;4.346;2022-08-30T07:31:05;6.60;;;4.30;;
51987;SDS011;38003;52.012;4.346;2022-08-30T07:33:38;6.45;;;3.70;;
51987;SDS011;38003;52.012;4.346;2022-08-30T07:36:06;5.07;;;3.90;;
51987;SDS011;38003;52.012;4.346;2022-08-30T07:38:34;4.55;;;3.60;;
51987;SDS011;38003;52.012;4.346;2022-08-30T07:41:03;5.57;;;3.70;;
51987;SDS011;38003;52.012;4.346;2022-08-30T07:43:31;3.72;;;3.40;;
51987;SDS011;38003;52.012;4.346;2022-08-30T07:46:00;3.33;;;2.95;;
51987;SDS011;38003;52.012;4.346;2022-08-30T07:48:30;5.05;;;3.30;;
51987;SDS011;38003;52.012;4.346;2022-08-30T07:50:59;3.75;;;2.90;;
51987;SDS011;38003;52.012;4.346;2022-08-30T07:53:30;3.80;;;2.72;;
51987;SDS011;38003;52.012;4.346;2022-08-30T07:55:58;2.83;;;2.50;;
51987;SDS011;38003;52.012;4.346;2022-08-30T07:58:30;5.18;;;2.63;;
51987;SDS011;38003;52.012;4.346;2022-08-30T08:00:58;3.70;;;2.40;;
51987;SDS011;38003;52.012;4.346;2022-08-30T08:03:27;2.25;;;2.03;;
51987;SDS011;38003;52.012;4.346;2022-08-30T08:05:56;3.50;;;2.03;;
51987;SDS011;38003;52.012;4.346;2022-08-30T08:08:27;5.68;;;1.90;;
51987;SDS011;38003;52.012;4.346;2022-08-30T08:10:55;5.28;;;1.70;;
51987;SDS011;38003;52.012;4.346;2022-08-30T08:13:23;2.47;;;1.80;;
51987;SDS011;38003;52.012;4.346;2022-08-30T08:15:53;5.00;;;2.13;;
51987;SDS011;38003;52.012;4.346;2022-08-30T08:18:21;4.90;;;1.92;;
51987;SDS011;38003;52.012;4.346;2022-08-30T08:20:50;5.47;;;1.80;;
51987;SDS011;38003;52.012;4.346;2022-08-30T08:23:21;3.35;;;1.90;;
51987;SDS011;38003;52.012;4.346;2022-08-30T08:25:49;4.43;;;1.67;;
51987;SDS011;38003;52.012;4.346;2022-08-30T08:28:17;2.85;;;1.55;;
51987;SDS011;38003;52.012;4.346;2022-08-30T08:30:45;3.45;;;1.77;;
51987;SDS011;38003;52.012;4.346;2022-08-30T08:33:15;3.15;;;1.48;;
51987;SDS011;38003;52.012;4.346;2022-08-30T08:35:43;3.38;;;1.65;;
51987;SDS011;38003;52.012;4.346;2022-08-30T08:38:13;2.60;;;1.50;;
51987;SDS011;38003;52.012;4.346;2022-08-30T08:40:42;4.50;;;1.55;;
51987;SDS011;38003;52.012;4.346;2022-08-30T08:43:25;4.72;;;1.83;;
51987;SDS011;38003;52.012;4.346;2022-08-30T08:45:55;3.53;;;1.60;;
51987;SDS011;38003;52.012;4.346;2022-08-30T08:48:30;2.78;;;1.50;;
51987;SDS011;38003;52.012;4.346;2022-08-30T08:51:21;2.00;;;1.52;;
51987;SDS011;38003;52.012;4.346;2022-08-30T08:54:12;2.55;;;1.65;;
51987;SDS011;38003;52.012;4.346;2022-08-30T08:56:45;2.38;;;1.40;;
51987;SDS011;38003;52.012;4.346;2022-08-30T08:59:13;5.15;;;1.48;;
51987;SDS011;38003;52.012;4.346;2022-08-30T09:01:42;3.28;;;1.13;;
51987;SDS011;38003;52.012;4.346;2022-08-30T09:04:13;2.33;;;1.30;;
51987;SDS011;38003;52.012;4.346;2022-08-30T09:06:50;3.20;;;1.48;;
51987;SDS011;38003;52.012;4.346;2022-08-30T09:09:23;3.38;;;1.75;;
51987;SDS011;38003;52.012;4.346;2022-08-30T09:11:53;2.97;;;1.48;;
51987;SDS011;38003;52.012;4.346;2022-08-30T09:14:22;1.63;;;1.08;;
51987;SDS011;38003;52.012;4.346;2022-08-30T09:16:56;2.33;;;1.35;;
51987;SDS011;38003;52.012;4.346;2022-08-30T09:19:29;3.88;;;1.30;;
51987;SDS011;38003;52.012;4.346;2022-08-30T09:22:00;2.00;;;1.40;;
51987;SDS011;38003;52.012;4.346;2022-08-30T09:24:39;1.48;;;1.30;;
51987;SDS011;38003;52.012;4.346;2022-08-30T09:27:13;3.15;;;1.10;;
51987;SDS011;38003;52.012;4.346;2022-08-30T09:29:51;1.80;;;1.13;;
51987;SDS011;38003;52.012;4.346;2022-08-30T09:32:24;1.38;;;1.15;;
51987;SDS011;38003;52.012;4.346;2022-08-30T09:34:57;2.83;;;1.30;;
51987;SDS011;38003;52.012;4.346;2022-08-30T09:37:36;2.92;;;1.30;;
51987;SDS011;38003;52.012;4.346;2022-08-30T09:40:11;2.95;;;1.20;;
51987;SDS011;38003;52.012;4.346;2022-08-30T09:42:57;2.90;;;1.23;;
51987;SDS011;38003;52.012;4.346;2022-08-30T09:45:28;2.50;;;1.27;;
51987;SDS011;38003;52.012;4.346;2022-08-30T09:47:58;3.90;;;1.25;;
51987;SDS011;38003;52.012;4.346;2022-08-30T09:50:26;2.90;;;1.33;;
51987;SDS011;38003;52.012;4.346;2022-08-30T09:53:00;2.42;;;1.30;;
51987;SDS011;38003;52.012;4.346;2022-08-30T09:58:39;3.38;;;1.52;;
51987;SDS011;38003;52.012;4.346;2022-08-30T10:01:20;2.45;;;1.50;;
51987;SDS011;38003;52.012;4.346;2022-08-30T10:03:51;1.73;;;1.35;;
51987;SDS011;38003;52.012;4.346;2022-08-30T10:06:26;3.90;;;1.50;;
51987;SDS011;38003;52.012;4.346;2022-08-30T10:09:02;2.30;;;1.40;;
51987;SDS011;38003;52.012;4.346;2022-08-30T10:11:40;2.35;;;1.20;;
51987;SDS011;38003;52.012;4.346;2022-08-30T10:14:21;3.28;;;1.35;;
51987;SDS011;38003;52.012;4.346;2022-08-30T10:17:02;5.60;;;1.50;;
51987;SDS011;38003;52.012;4.346;2022-08-30T10:19:44;2.85;;;1.42;;
51987;SDS011;38003;52.012;4.346;2022-08-30T10:22:27;4.30;;;1.48;;
51987;SDS011;38003;52.012;4.346;2022-08-30T10:25:01;3.05;;;1.23;;
51987;SDS011;38003;52.012;4.346;2022-08-30T10:27:44;3.33;;;1.50;;
51987;SDS011;38003;52.012;4.346;2022-08-30T10:30:16;4.85;;;1.58;;
51987;SDS011;38003;52.012;4.346;2022-08-30T10:32:47;2.13;;;1.17;;
51987;SDS011;38003;52.012;4.346;2022-08-30T10:35:19;3.70;;;1.42;;
51987;SDS011;38003;52.012;4.346;2022-08-30T10:37:51;1.88;;;1.30;;
51987;SDS011;38003;52.012;4.346;2022-08-30T10:40:23;3.28;;;1.60;;
51987;SDS011;38003;52.012;4.346;2022-08-30T10:43:15;1.73;;;1.23;;
51987;SDS011;38003;52.012;4.346;2022-08-30T10:45:51;2.03;;;1.30;;
51987;SDS011;38003;52.012;4.346;2022-08-30T10:48:23;2.00;;;1.00;;
51987;SDS011;38003;52.012;4.346;2022-08-30T10:50:57;1.95;;;1.17;;
51987;SDS011;38003;52.012;4.346;2022-08-30T10:53:31;2.13;;;1.00;;
51987;SDS011;38003;52.012;4.346;2022-08-30T10:56:04;2.92;;;1.23;;
51987;SDS011;38003;52.012;4.346;2022-08-30T10:58:36;1.63;;;1.10;;
51987;SDS011;38003;52.012;4.346;2022-08-30T11:01:09;3.72;;;1.52;;
51987;SDS011;38003;52.012;4.346;2022-08-30T11:03:57;2.08;;;1.00;;
51987;SDS011;38003;52.012;4.346;2022-08-30T11:06:44;1.50;;;1.10;;
51987;SDS011;38003;52.012;4.346;2022-08-30T11:09:26;2.97;;;1.20;;
51987;SDS011;38003;52.012;4.346;2022-08-30T11:12:15;3.00;;;1.30;;
51987;SDS011;38003;52.012;4.346;2022-08-30T11:14:54;4.32;;;1.25;;
51987;SDS011;38003;52.012;4.346;2022-08-30T11:17:24;4.25;;;1.25;;
51987;SDS011;38003;52.012;4.346;2022-08-30T11:19:55;4.18;;;1.10;;
51987;SDS011;38003;52.012;4.346;2022-08-30T11:22:26;3.55;;;1.00;;
51987;SDS011;38003;52.012;4.346;2022-08-30T11:25:05;2.97;;;1.15;;
51987;SDS011;38003;52.012;4.346;2022-08-30T11:27:43;3.65;;;1.70;;
51987;SDS011;38003;52.012;4.346;2022-08-30T11:33:28;1.63;;;1.20;;
51987;SDS011;38003;52.012;4.346;2022-08-30T11:36:07;2.40;;;1.48;;
51987;SDS011;38003;52.012;4.346;2022-08-30T11:41:33;3.65;;;1.50;;
51987;SDS011;38003;52.012;4.346;2022-08-30T11:44:12;3.42;;;1.30;;
51987;SDS011;38003;52.012;4.346;2022-08-30T11:46:56;3.35;;;1.35;;
51987;SDS011;38003;52.012;4.346;2022-08-30T11:49:30;2.58;;;1.10;;
51987;SDS011;38003;52.012;4.346;2022-08-30T11:52:29;1.77;;;1.25;;
51987;SDS011;38003;52.012;4.346;2022-08-30T11:55:26;1.85;;;1.13;;
51987;SDS011;38003;52.012;4.346;2022-08-30T11:58:06;2.38;;;1.27;;
51987;SDS011;38003;52.012;4.346;2022-08-30T12:00:44;2.42;;;1.08;;
51987;SDS011;38003;52.012;4.346;2022-08-30T12:03:27;1.35;;;1.05;;
51987;SDS011;38003;52.012;4.346;2022-08-30T12:06:01;5.55;;;1.38;;
51987;SDS011;38003;52.012;4.346;2022-08-30T12:08:43;2.08;;;1.25;;
51987;SDS011;38003;52.012;4.346;2022-08-30T12:14:40;3.03;;;1.30;;
51987;SDS011;38003;52.012;4.346;2022-08-30T12:20:43;3.40;;;1.20;;
51987;SDS011;38003;52.012;4.346;2022-08-30T12:23:14;2.63;;;1.00;;
51987;SDS011;38003;52.012;4.346;2022-08-30T12:25:48;3.20;;;1.30;;
51987;SDS011;38003;52.012;4.346;2022-08-30T12:28:20;3.53;;;1.50;;
51987;SDS011;38003;52.012;4.346;2022-08-30T12:30:49;2.35;;;1.35;;
51987;SDS011;38003;52.012;4.346;2022-08-30T12:33:22;3.60;;;1.70;;
51987;SDS011;38003;52.012;4.346;2022-08-30T12:35:56;1.83;;;1.48;;
51987;SDS011;38003;52.012;4.346;2022-08-30T12:38:24;2.30;;;1.20;;
51987;SDS011;38003;52.012;4.346;2022-08-30T12:40:54;3.17;;;1.25;;
51987;SDS011;38003;52.012;4.346;2022-08-30T12:43:26;2.97;;;1.38;;
51987;SDS011;38003;52.012;4.346;2022-08-30T12:46:07;5.80;;;1.55;;
51987;SDS011;38003;52.012;4.346;2022-08-30T12:48:38;4.45;;;1.50;;
51987;SDS011;38003;52.012;4.346;2022-08-30T12:51:08;3.80;;;1.88;;
51987;SDS011;38003;52.012;4.346;2022-08-30T12:54:03;3.05;;;1.88;;
51987;SDS011;38003;52.012;4.346;2022-08-30T12:56:44;2.30;;;1.45;;
51987;SDS011;38003;52.012;4.346;2022-08-30T12:59:48;2.97;;;1.67;;
51987;SDS011;38003;52.012;4.346;2022-08-30T13:02:25;2.97;;;1.60;;
51987;SDS011;38003;52.012;4.346;2022-08-30T13:04:55;2.83;;;1.40;;
51987;SDS011;38003;52.012;4.346;2022-08-30T13:07:26;2.88;;;1.50;;
51987;SDS011;38003;52.012;4.346;2022-08-30T13:09:59;6.65;;;1.80;;
51987;SDS011;38003;52.012;4.346;2022-08-30T13:12:58;1.30;;;1.20;;
51987;SDS011;38003;52.012;4.346;2022-08-30T13:15:28;3.03;;;1.38;;
51987;SDS011;38003;52.012;4.346;2022-08-30T13:18:11;3.50;;;1.30;;
51987;SDS011;38003;52.012;4.346;2022-08-30T13:23:39;2.90;;;1.50;;
51987;SDS011;38003;52.012;4.346;2022-08-30T13:26:07;1.50;;;1.30;;
51987;SDS011;38003;52.012;4.346;2022-08-30T13:28:46;3.47;;;1.30;;
51987;SDS011;38003;52.012;4.346;2022-08-30T13:31:15;1.73;;;1.20;;
51987;SDS011;38003;52.012;4.346;2022-08-30T13:33:44;1.75;;;1.13;;
51987;SDS011;38003;52.012;4.346;2022-08-30T13:36:13;2.72;;;1.30;;
51987;SDS011;38003;52.012;4.346;2022-08-30T13:38:42;3.00;;;1.40;;
51987;SDS011;38003;52.012;4.346;2022-08-30T13:41:10;2.17;;;1.17;;
51987;SDS011;38003;52.012;4.346;2022-08-30T13:43:38;3.25;;;1.10;;
51987;SDS011;38003;52.012;4.346;2022-08-30T13:46:25;4.43;;;1.40;;
51987;SDS011;38003;52.012;4.346;2022-08-30T13:48:56;4.47;;;1.40;;
51987;SDS011;38003;52.012;4.346;2022-08-30T13:51:26;4.18;;;1.08;;
51987;SDS011;38003;52.012;4.346;2022-08-30T13:53:57;2.17;;;1.17;;
51987;SDS011;38003;52.012;4.346;2022-08-30T13:56:25;1.73;;;1.20;;
51987;SDS011;38003;52.012;4.346;2022-08-30T13:58:57;2.35;;;1.40;;
51987;SDS011;38003;52.012;4.346;2022-08-30T14:01:28;5.72;;;1.30;;
51987;SDS011;38003;52.012;4.346;2022-08-30T14:04:16;2.58;;;1.25;;
51987;SDS011;38003;52.012;4.346;2022-08-30T14:06:44;2.80;;;1.40;;
51987;SDS011;38003;52.012;4.346;2022-08-30T14:09:33;2.08;;;1.23;;
51987;SDS011;38003;52.012;4.346;2022-08-30T14:12:02;4.63;;;1.50;;
51987;SDS011;38003;52.012;4.346;2022-08-30T14:14:30;1.67;;;1.30;;
51987;SDS011;38003;52.012;4.346;2022-08-30T14:17:08;2.33;;;1.35;;
51987;SDS011;38003;52.012;4.346;2022-08-30T14:19:37;2.20;;;1.50;;
51987;SDS011;38003;52.012;4.346;2022-08-30T14:22:05;1.98;;;1.35;;
51987;SDS011;38003;52.012;4.346;2022-08-30T14:24:34;2.08;;;1.25;;
51987;SDS011;38003;52.012;4.346;2022-08-30T14:27:02;2.40;;;1.40;;
51987;SDS011;38003;52.012;4.346;2022-08-30T14:29:30;4.65;;;1.52;;
51987;SDS011;38003;52.012;4.346;2022-08-30T14:32:00;2.40;;;1.77;;
51987;SDS011;38003;52.012;4.346;2022-08-30T14:34:28;2.63;;;1.77;;
51987;SDS011;38003;52.012;4.346;2022-08-30T14:36:57;4.68;;;1.70;;
51987;SDS011;38003;52.012;4.346;2022-08-30T14:39:25;3.72;;;1.75;;
51987;SDS011;38003;52.012;4.346;2022-08-30T14:41:55;2.40;;;1.52;;
51987;SDS011;38003;52.012;4.346;2022-08-30T14:44:28;1.55;;;1.38;;
51987;SDS011;38003;52.012;4.346;2022-08-30T14:47:16;2.08;;;1.48;;
51987;SDS011;38003;52.012;4.346;2022-08-30T14:49:44;2.03;;;1.45;;
51987;SDS011;38003;52.012;4.346;2022-08-30T14:52:12;3.17;;;1.60;;
51987;SDS011;38003;52.012;4.346;2022-08-30T14:54:40;2.50;;;1.70;;
51987;SDS011;38003;52.012;4.346;2022-08-30T14:57:09;3.63;;;1.48;;
51987;SDS011;38003;52.012;4.346;2022-08-30T14:59:37;3.80;;;1.70;;
51987;SDS011;38003;52.012;4.346;2022-08-30T15:02:05;3.95;;;1.33;;
51987;SDS011;38003;52.012;4.346;2022-08-30T15:04:34;2.08;;;1.25;;
51987;SDS011;38003;52.012;4.346;2022-08-30T15:07:02;3.15;;;1.55;;
51987;SDS011;38003;52.012;4.346;2022-08-30T15:09:30;2.90;;;1.30;;
51987;SDS011;38003;52.012;4.346;2022-08-30T15:11:59;3.90;;;1.40;;
51987;SDS011;38003;52.012;4.346;2022-08-30T15:14:30;1.48;;;1.35;;
51987;SDS011;38003;52.012;4.346;2022-08-30T15:16:58;3.25;;;1.33;;
51987;SDS011;38003;52.012;4.346;2022-08-30T15:19:28;3.28;;;1.40;;
51987;SDS011;38003;52.012;4.346;2022-08-30T15:21:57;3.72;;;1.63;;
51987;SDS011;38003;52.012;4.346;2022-08-30T15:24:26;5.65;;;1.77;;
51987;SDS011;38003;52.012;4.346;2022-08-30T15:26:55;2.55;;;1.60;;
51987;SDS011;38003;52.012;4.346;2022-08-30T15:29:25;2.75;;;1.30;;
51987;SDS011;38003;52.012;4.346;2022-08-30T15:31:58;2.53;;;1.70;;